Time,TemperatureF,DewpointF,PressureIn,WindDirection,WindDirectionDegrees,WindSpeedMPH,WindSpeedGustMPH,Humidity,HourlyPrecipIn,Conditions,Clouds,dailyrainin,SoftwareType,DateUTC
2014-01-01 00:21:00,41.0,40.0,30.36,ESE,113,0.0,2.0,96,0.00,,,-99.99,,2014-01-01 08:21:00,
2014-01-01 00:42:00,41.0,40.0,30.35,ESE,113,1.0,4.0,96,0.00,,,-99.99,,2014-01-01 08:42:00,
2014-01-01 00:52:00,41.0,40.0,30.37,ESE,113,0.0,0.0,96,0.01,,,-99.99,,2014-01-01 08:52:00,
2014-01-01 01:21:00,41.0,40.0,30.37,ESE,113,0.0,1.0,96,0.01,,,-99.99,,2014-01-01 09:21:00,
2014-01-01 01:43:00,41.0,40.0,30.37,ESE,113,0.0,1.0,96,0.01,,,-99.99,,2014-01-01 09:43:00,
2014-01-01 01:53:00,41.0,40.0,30.37,ESE,113,0.0,0.0,96,0.00,,,-99.99,,2014-01-01 09:53:00,
2014-01-01 02:23:00,41.0,40.0,30.38,ESE,113,0.0,1.0,97,0.00,,,-99.99,,2014-01-01 10:23:00,
2014-01-01 02:53:00,41.0,40.0,30.38,ESE,112,4.0,7.0,97,0.00,,,-99.99,,2014-01-01 10:53:00,
2014-01-01 03:22:00,41.0,40.0,30.38,ESE,111,5.0,8.0,97,0.00,,,-99.99,,2014-01-01 11:22:00,
2014-01-01 03:53:00,40.0,39.0,30.38,ESE,111,0.0,4.0,97,0.00,,,-99.99,,2014-01-01 11:53:00,
2014-01-01 04:22:00,40.0,39.0,30.38,ESE,111,0.0,0.0,96,0.00,,,-99.99,,2014-01-01 12:22:00,
2014-01-01 04:42:00,40.0,39.0,30.38,ESE,111,1.0,2.0,97,0.00,,,-99.99,,2014-01-01 12:42:00,
2014-01-01 04:52:00,39.0,38.0,30.37,ESE,111,0.0,0.0,97,0.00,,,-99.99,,2014-01-01 12:52:00,
2014-01-01 05:22:00,39.0,38.0,30.37,ESE,111,1.0,3.0,97,0.00,,,-99.99,,2014-01-01 13:22:00,
2014-01-01 05:42:00,39.0,38.0,30.36,ESE,111,0.0,3.0,96,0.00,,,-99.99,,2014-01-01 13:42:00,
2014-01-01 05:52:00,39.0,38.0,30.36,ESE,111,0.0,1.0,97,0.00,,,-99.99,,2014-01-01 13:52:00,
2014-01-01 06:22:00,38.0,37.0,30.35,ESE,111,2.0,5.0,97,0.00,,,-99.99,,2014-01-01 14:22:00,
2014-01-01 06:42:00,38.0,37.0,30.35,ESE,111,1.0,5.0,97,0.00,,,-99.99,,2014-01-01 14:42:00,
2014-01-01 06:53:00,38.0,37.0,30.35,ESE,111,1.0,4.0,96,0.00,,,-99.99,,2014-01-01 14:53:00,
2014-01-01 07:22:00,38.0,37.0,30.35,ESE,111,0.0,1.0,97,0.00,,,-99.99,,2014-01-01 15:22:00,
2014-01-01 07:43:00,38.0,37.0,30.35,ESE,111,0.0,3.0,97,0.00,,,-99.99,,2014-01-01 15:43:00,
2014-01-01 07:53:00,38.0,37.0,30.36,ESE,111,0.0,2.0,97,0.00,,,-99.99,,2014-01-01 15:53:00,
2014-01-01 08:23:00,38.0,37.0,30.36,ESE,111,0.0,2.0,97,0.00,,,-99.99,,2014-01-01 16:23:00,
2014-01-01 08:42:00,38.0,37.0,30.37,ESE,111,0.0,0.0,97,0.00,,,-99.99,,2014-01-01 16:42:00,
2014-01-01 08:53:00,38.0,37.0,30.37,ESE,111,0.0,2.0,97,0.00,,,-99.99,,2014-01-01 16:53:00,
2014-01-01 09:22:00,38.0,37.0,30.38,ESE,111,2.0,3.0,97,0.00,,,-99.99,,2014-01-01 17:22:00,
2014-01-01 09:43:00,37.0,36.0,30.37,ESE,111,1.0,4.0,97,0.00,,,-99.99,,2014-01-01 17:43:00,
2014-01-01 09:52:00,38.0,37.0,30.38,ESE,111,1.0,4.0,97,0.00,,,-99.99,,2014-01-01 17:52:00,
2014-01-01 10:21:00,38.0,37.0,30.37,ESE,111,0.0,2.0,97,0.00,,,-99.99,,2014-01-01 18:21:00,
2014-01-01 10:42:00,38.0,37.0,30.37,ESE,111,0.0,2.0,97,0.00,,,-99.99,,2014-01-01 18:42:00,
2014-01-01 10:53:00,39.0,38.0,30.37,ESE,111,0.0,3.0,97,0.00,,,-99.99,,2014-01-01 18:53:00,
2014-01-01 11:21:00,39.0,38.0,30.36,ESE,111,1.0,2.0,97,0.00,,,-99.99,,2014-01-01 19:21:00,
2014-01-01 11:42:00,39.0,38.0,30.35,ESE,111,0.0,3.0,97,0.00,,,-99.99,,2014-01-01 19:42:00,
2014-01-01 11:52:00,40.0,39.0,30.35,ESE,111,0.0,1.0,97,0.00,,,0.02,,2014-01-01 19:52:00,
2014-01-01 12:12:00,40.0,39.0,30.35,ESE,111,1.0,2.0,97,0.00,,,0.02,,2014-01-01 20:12:00,
2014-01-01 12:21:00,40.0,39.0,30.35,ESE,111,1.0,2.0,97,0.00,,,0.02,,2014-01-01 20:21:00,
2014-01-01 12:42:00,40.0,39.0,30.34,ESE,111,3.0,6.0,97,0.00,,,0.02,,2014-01-01 20:42:00,
2014-01-01 12:53:00,40.0,39.0,30.33,ESE,111,1.0,5.0,97,0.00,,,0.01,,2014-01-01 20:53:00,
2014-01-01 13:21:00,41.0,40.0,30.33,ESE,111,0.0,1.0,97,0.00,,,0.01,,2014-01-01 21:21:00,
2014-01-01 13:43:00,41.0,40.0,30.32,ESE,111,0.0,3.0,97,0.00,,,0.01,,2014-01-01 21:43:00,
2014-01-01 13:53:00,42.0,41.0,30.32,ESE,111,0.0,3.0,97,0.00,,,0.01,,2014-01-01 21:53:00,
2014-01-01 14:23:00,41.0,40.0,30.32,ESE,107,1.0,3.0,97,0.00,,,0.01,,2014-01-01 22:23:00,
2014-01-01 14:42:00,41.0,40.0,30.31,ESE,107,0.0,1.0,97,0.00,,,0.01,,2014-01-01 22:42:00,
2014-01-01 14:53:00,42.0,41.0,30.31,ESE,107,0.0,2.0,97,0.00,,,0.01,,2014-01-01 22:53:00,
2014-01-01 15:22:00,42.0,41.0,30.31,ESE,107,0.0,1.0,97,0.00,,,0.01,,2014-01-01 23:22:00,
2014-01-01 15:42:00,42.0,41.0,30.32,ESE,107,1.0,2.0,97,0.00,,,0.01,,2014-01-01 23:42:00,
2014-01-01 15:53:00,42.0,41.0,30.32,ESE,107,0.0,3.0,97,0.00,,,0.01,,2014-01-01 23:53:00,
2014-01-01 16:11:00,42.0,41.0,30.32,ESE,107,0.0,1.0,97,0.00,,,0.01,,2014-01-02 00:11:00,
2014-01-01 16:21:00,42.0,41.0,30.32,ESE,107,0.0,0.0,97,0.00,,,0.01,,2014-01-02 00:21:00,
2014-01-01 16:42:00,42.0,41.0,30.32,ESE,107,0.0,0.0,97,0.00,,,0.01,,2014-01-02 00:42:00,
2014-01-01 16:52:00,42.0,41.0,30.33,ESE,107,0.0,1.0,97,0.00,,,0.01,,2014-01-02 00:52:00,
2014-01-01 17:22:00,42.0,41.0,30.33,ESE,107,0.0,2.0,97,0.00,,,0.01,,2014-01-02 01:22:00,
2014-01-01 17:42:00,42.0,41.0,30.33,ESE,107,0.0,2.0,97,0.00,,,0.01,,2014-01-02 01:42:00,
2014-01-01 17:52:00,42.0,41.0,30.33,ESE,107,0.0,1.0,97,0.00,,,0.01,,2014-01-02 01:52:00,
2014-01-01 18:21:00,42.0,41.0,30.33,ESE,107,0.0,3.0,97,0.00,,,0.01,,2014-01-02 02:21:00,
2014-01-01 19:21:00,42.0,41.0,30.31,ESE,107,0.0,1.0,97,0.00,,,0.01,,2014-01-02 03:21:00,
2014-01-01 19:43:00,42.0,41.0,30.31,ESE,107,0.0,2.0,97,0.00,,,0.01,,2014-01-02 03:43:00,
2014-01-01 19:53:00,41.0,40.0,30.29,ESE,107,1.0,4.0,97,0.00,,,0.01,,2014-01-02 03:53:00,
2014-01-01 20:23:00,41.0,40.0,30.27,ESE,107,0.0,3.0,97,0.00,,,0.01,,2014-01-02 04:23:00,
2014-01-01 20:53:00,41.0,40.0,30.25,ESE,107,0.0,5.0,97,0.00,,,0.01,,2014-01-02 04:53:00,
2014-01-01 21:22:00,41.0,40.0,30.25,ESE,107,0.0,2.0,97,0.00,,,0.01,,2014-01-02 05:22:00,
2014-01-01 21:53:00,41.0,40.0,30.25,ESE,107,1.0,2.0,97,0.00,,,0.01,,2014-01-02 05:53:00,
2014-01-01 22:22:00,41.0,40.0,30.24,ESE,107,0.0,0.0,97,0.00,,,0.01,,2014-01-02 06:22:00,
2014-01-01 22:42:00,41.0,40.0,30.24,ESE,107,0.0,0.0,97,0.00,,,0.01,,2014-01-02 06:42:00,
2014-01-01 22:53:00,41.0,40.0,30.24,ESE,107,0.0,1.0,97,0.00,,,0.01,,2014-01-02 06:53:00,
2014-01-01 23:12:00,41.0,40.0,30.24,ESE,107,0.0,0.0,97,0.00,,,0.01,,2014-01-02 07:12:00,
2014-01-01 23:22:00,41.0,40.0,30.24,ESE,107,2.0,3.0,97,0.00,,,0.01,,2014-01-02 07:22:00,
2014-01-01 23:42:00,41.0,40.0,30.24,ESE,107,0.0,3.0,97,0.00,,,0.01,,2014-01-02 07:42:00,
2014-01-01 23:52:00,41.0,40.0,30.24,ESE,107,0.0,3.0,97,0.00,,,0.01,,2014-01-02 07:52:00,